createdAt,value
2023-05-09T07:39:50.509Z,95369.06
2023-05-09T07:42:18.118Z,95372.31
2023-05-09T07:44:45.817Z,95379.13
2023-05-09T07:47:12.749Z,95379.31
2023-05-09T07:49:40.897Z,95382.84
2023-05-09T07:52:07.845Z,95381.31
2023-05-09T07:54:34.847Z,95376.91
2023-05-09T07:57:01.781Z,95380.06
2023-05-09T07:59:28.688Z,95379.06
2023-05-09T08:01:55.964Z,95369.91
2023-05-09T08:04:23.099Z,95371.00
2023-05-09T08:06:50.161Z,95354.75
2023-05-09T08:09:17.325Z,95370.56
2023-05-09T08:11:45.341Z,95378.22
2023-05-09T08:14:12.807Z,95373.47
2023-05-09T08:16:40.714Z,95375.72
2023-05-09T08:19:07.620Z,95376.00
2023-05-09T08:21:36.232Z,95364.22
2023-05-09T08:24:03.253Z,95372.78
2023-05-09T08:26:30.240Z,95362.78
2023-05-09T08:28:57.321Z,95377.00
2023-05-09T08:31:24.329Z,95376.16
2023-05-09T08:33:51.265Z,95372.53
2023-05-09T08:36:18.191Z,95370.09
2023-05-09T08:38:45.164Z,95370.25
2023-05-09T08:41:12.120Z,95368.66
2023-05-09T08:43:41.100Z,95375.94
2023-05-09T08:46:10.853Z,95365.50
2023-05-09T08:48:39.099Z,95368.84
2023-05-09T08:51:07.138Z,95368.94
2023-05-09T08:53:34.934Z,95370.44
2023-05-09T08:56:04.254Z,95362.81
2023-05-09T08:58:32.258Z,95373.94
2023-05-09T09:00:59.814Z,95369.59
2023-05-09T09:03:27.406Z,95362.22
2023-05-09T09:05:55.232Z,95372.91
2023-05-09T09:08:23.429Z,95354.72
2023-05-09T09:10:50.624Z,95368.03
2023-05-09T09:13:18.478Z,95367.69
2023-05-09T09:15:47.238Z,95362.94
2023-05-09T09:18:22.702Z,95370.56
2023-05-09T09:20:58.405Z,95359.59
2023-05-09T09:23:27.375Z,95369.44
2023-05-09T09:26:13.715Z,95374.50
2023-05-09T09:28:40.981Z,95365.72
2023-05-09T09:31:25.329Z,95366.19
2023-05-09T09:33:52.483Z,95372.41
2023-05-09T09:36:36.905Z,95367.38
2023-05-09T09:39:05.723Z,95365.97
2023-05-09T09:41:37.848Z,95362.91
2023-05-09T09:44:09.644Z,95370.94
2023-05-09T09:46:51.862Z,95367.03
2023-05-09T09:49:23.995Z,95368.59
2023-05-09T09:51:52.778Z,95363.75
2023-05-09T09:54:20.058Z,95377.69
2023-05-09T09:56:49.365Z,95374.09
2023-05-09T09:59:16.346Z,95370.13
2023-05-09T10:02:07.036Z,95367.41
2023-05-09T10:04:37.212Z,95358.19
2023-05-09T10:07:06.703Z,95367.41
2023-05-09T10:09:36.077Z,95359.53
2023-05-09T10:12:07.637Z,95365.13
2023-05-09T10:14:36.845Z,95350.94
2023-05-09T10:17:05.525Z,95357.31
2023-05-09T10:19:33.439Z,95359.03
2023-05-09T10:22:06.288Z,95354.97
2023-05-09T10:24:37.829Z,95354.13
2023-05-09T10:27:09.854Z,95347.94
2023-05-09T10:29:41.675Z,95349.59
2023-05-09T10:32:32.450Z,95343.84
2023-05-09T10:35:05.401Z,95347.81
2023-05-09T10:37:33.423Z,95343.28
2023-05-09T10:40:03.119Z,95339.81
2023-05-09T10:42:30.820Z,95337.34
2023-05-09T10:44:58.432Z,95337.00
2023-05-09T10:47:29.943Z,95325.56
2023-05-09T10:49:58.196Z,95340.69
2023-05-09T10:52:25.106Z,95332.78
2023-05-09T10:55:04.060Z,95347.88
2023-05-09T10:57:32.775Z,95341.03
2023-05-09T11:00:00.740Z,95337.47
2023-05-09T11:02:32.696Z,95343.78
2023-05-09T11:05:20.408Z,95339.00
2023-05-09T11:07:47.369Z,95337.47
2023-05-09T11:10:18.493Z,95349.41
2023-05-09T11:12:59.476Z,95342.88
2023-05-09T11:15:30.245Z,95344.38
2023-05-09T11:18:09.912Z,95337.16
2023-05-09T11:20:43.786Z,95340.03
2023-05-09T11:23:12.094Z,95337.78
2023-05-09T11:25:42.540Z,95349.72
2023-05-09T11:28:10.148Z,95332.56
2023-05-09T11:30:44.040Z,95346.59
2023-05-09T11:33:24.348Z,95343.00
2023-05-09T11:36:19.368Z,95335.25
2023-05-09T11:38:49.214Z,95342.25
2023-05-09T11:41:16.353Z,95339.94
2023-05-09T11:43:45.064Z,95345.09
2023-05-09T11:46:13.079Z,95333.66
2023-05-09T11:48:42.486Z,95347.03
2023-05-09T11:51:18.375Z,95330.81
2023-05-09T11:53:47.256Z,95338.72
2023-05-09T11:56:15.722Z,95339.13
2023-05-09T11:58:44.653Z,95333.13
2023-05-09T12:01:13.100Z,95338.53
2023-05-09T12:03:45.509Z,95327.19
2023-05-09T12:06:20.136Z,95330.06
2023-05-09T12:08:47.412Z,95330.06
2023-05-09T12:11:15.381Z,95335.84
2023-05-09T12:13:49.451Z,95340.94
2023-05-09T12:16:17.884Z,95347.44
2023-05-09T12:18:49.062Z,95339.88
2023-05-09T12:21:17.543Z,95343.38
2023-05-09T12:23:45.290Z,95345.19
2023-05-09T12:26:12.635Z,95347.53
2023-05-09T12:28:40.093Z,95346.47
2023-05-09T12:31:08.096Z,95347.81
2023-05-09T12:33:37.612Z,95341.84
2023-05-09T12:36:07.789Z,95336.56
2023-05-09T12:38:34.806Z,95333.31
2023-05-09T12:41:10.639Z,95330.78
2023-05-09T12:43:40.320Z,95337.16
2023-05-09T12:46:08.920Z,95331.50
2023-05-09T12:48:39.368Z,95334.47
2023-05-09T12:51:07.511Z,95334.00
2023-05-09T12:53:41.633Z,95327.38
2023-05-09T12:56:17.373Z,95324.22
2023-05-09T12:58:52.524Z,95321.44
2023-05-09T13:01:21.570Z,95319.19
2023-05-09T13:03:53.501Z,95317.00
2023-05-09T13:06:21.323Z,95323.47
2023-05-09T13:09:01.842Z,95321.00
2023-05-09T13:11:30.036Z,95306.53
2023-05-09T13:13:57.337Z,95306.88
2023-05-09T13:16:24.502Z,95319.19
2023-05-09T13:18:51.526Z,95304.88
2023-05-09T13:21:18.524Z,95305.91
2023-05-09T13:23:46.059Z,95306.72
2023-05-09T13:26:13.142Z,95309.84
2023-05-09T13:28:40.087Z,95309.84
2023-05-09T13:31:08.211Z,95318.06
2023-05-09T13:33:35.381Z,95308.41
2023-05-09T13:36:02.481Z,95311.53
2023-05-09T13:38:31.225Z,95303.47
2023-05-09T13:40:58.600Z,95299.69
2023-05-09T13:43:25.670Z,95307.25
2023-05-09T13:45:52.705Z,95311.88
2023-05-09T13:48:19.742Z,95314.00
2023-05-09T13:50:47.101Z,95312.56
2023-05-09T13:53:14.078Z,95326.22
2023-05-09T13:55:40.998Z,95324.50
2023-05-09T13:58:07.920Z,95324.53
2023-05-09T14:00:35.211Z,95321.41
2023-05-09T14:03:03.081Z,95327.59
2023-05-09T14:05:33.265Z,95316.56
2023-05-09T14:08:01.814Z,95315.56
2023-05-09T14:10:29.227Z,95308.81
2023-05-09T14:12:56.644Z,95311.22
2023-05-09T14:15:23.619Z,95303.25
2023-05-09T14:17:50.691Z,95313.88
2023-05-09T14:20:17.994Z,95318.59
2023-05-09T14:22:45.249Z,95317.28
2023-05-09T14:25:12.762Z,95319.59
2023-05-09T14:27:39.748Z,95319.59
2023-05-09T14:30:07.371Z,95310.19
2023-05-09T14:32:34.353Z,95314.56
2023-05-09T14:35:01.389Z,95312.63
2023-05-09T14:37:29.654Z,95314.09
2023-05-09T14:39:56.666Z,95292.06
2023-05-09T14:42:23.766Z,95310.41
2023-05-09T14:44:50.835Z,95315.72
2023-05-09T14:47:17.941Z,95309.25
2023-05-09T14:49:45.568Z,95315.72
2023-05-09T14:52:13.966Z,95314.91
2023-05-09T14:54:41.387Z,95311.81
2023-05-09T14:57:08.704Z,95310.19
2023-05-09T15:06:17.954Z,95308.31
2023-05-09T15:08:44.896Z,95306.34
2023-05-09T15:16:17.587Z,95309.44
2023-05-09T15:42:16.675Z,95309.66
